Detall de PIREP

Printer-friendly versionPDF version

[2014/09/09 11:29:00]
Flight IATA:CT2112
Pilot Number:012
Company ICAO:CAT
Aircraft Type:F70/A
PAX:79
Aircraft Registration:PFJ
Departing Airport: LEVC
Destination Airport: LEZL
Alternate Airport:LEMG
Online: VATSIM
Route:ASTRO UM985 VIBAS
Flight Level:F270
No Slew and time accel
No pause
Crash detect
Detect pilot in Cockpit between each 30 and 45 minutes
11:29 Zero fuel Weight: 70909 Lbs, Fuel Weight: 8569 Lbs
11:29 VATSIM:LEVC 091100Z 08005KT 9999 SCT030 28/20 Q1016 NOSIG
11:29 VATSIM:LEZL 091100Z 25001KT CAVOK 26/17 Q1016 NOSIG
11:33 Parking Brakes off
11:38 Take-off
11:38 Take off Weight: 79085 Lbs
11:38 Wind: 080º @ 005 Knots Heading: 114º
11:38 POS N39º 29´ 27´´ W000º 29´ 10´´
11:38 Gear Up: 148 Knots
11:38 Flaps:1 at 148 Knots
11:38 Flaps:0 at 180 Knots
11:51 TOC
11:51 Fuel Weight: 6646 Lb
11:53 Wind:280º@030 Knots Heading: 235º Ground Speed: 395 Knots Altitude 27152 ft
12:08 Wind:194º@017 Knots Heading: 224º Ground Speed: 437 Knots Altitude 27106 ft
12:16 TOD
12:16 Fuel Weight: 4445 Lb
12:23 Wind:225º@005 Knots Heading: 277º Ground Speed: 343 Knots Altitude 13697 ft
12:29 Flaps:1 at 213 Knots
12:29 Gear Down: 183 Knots
12:29 Flaps:2 at 183 Knots
12:30 Flaps:3 at 163 Knots
12:31 Flaps:4 at 157 Knots
12:31 TouchDown:Rate -257 ft/min Speed: 106 Knots
12:31 Flaps:1 at 65 Knots
12:31 Flaps:0 at 63 Knots
12:31 VATSIM:LEZL 091200Z 25005KT 210V330 9999 FEW030 27/14 Q1015 NOSIG
12:31 Land
12:31 Wind:251º@001 Knots
12:31 Heading: 268º
12:31 Flight Duration: 00:53
12:31 Landing Weight: 74877 Lbs
12:31 POS N37º 25´ 04´´ W005º 53´ 25´´
12:33 Parking brakes on
12:33 Block to Block Duration: 01:00
12:33 Final Fuel: 3897 Lbls
12:33 Spent Fuel: 4671 Lbls
12:33 Flight Length: 321 NM
12:33 TOD Land Length: 76 NM

Exportar CSV

Powered by Drupal - Modified by Danger4k